Time;durP1;ratioP1;P1;durP2;ratioP2;P2;SDS_P1;SDS_P2;PMS_P1;PMS_P2;Temp;Humidity;BMP_temperature;BMP_pressure;BME280_temperature;BME280_humidity;BME280_pressure;Samples;Min_cycle;Max_cycle;Signal;HPM_P1;HPM_P2
2022/03/10 00:00:20;;;;;;;5.40;4.70;;;2.50;77.90;;;;;;5020862;28;20173;-90
2022/03/10 00:02:46;;;;;;;5.80;4.93;;;2.60;77.90;;;;;;5033718;28;20257;-87
2022/03/10 00:05:15;;;;;;;5.83;5.23;;;2.50;78.00;;;;;;5016560;28;20208;-88
2022/03/10 00:07:41;;;;;;;5.80;5.00;;;2.40;78.30;;;;;;5012796;28;20169;-84
2022/03/10 00:10:08;;;;;;;6.40;5.33;;;2.40;78.50;;;;;;5022480;28;20181;-88
2022/03/10 00:12:35;;;;;;;5.73;5.13;;;2.40;78.30;;;;;;5008504;28;20180;-85
2022/03/10 00:15:07;;;;;;;5.23;4.33;;;2.40;78.20;;;;;;5024461;28;20176;-90
2022/03/10 00:17:33;;;;;;;7.10;4.50;;;2.30;78.30;;;;;;5027471;28;20157;-88
2022/03/10 00:19:59;;;;;;;5.00;4.50;;;2.20;78.50;;;;;;5024879;28;20184;-85
2022/03/10 00:22:25;;;;;;;6.97;4.40;;;2.20;78.90;;;;;;5023187;28;20173;-88
2022/03/10 00:24:51;;;;;;;6.30;4.60;;;2.20;78.80;;;;;;5016396;28;20271;-87
2022/03/10 00:27:16;;;;;;;7.00;4.43;;;2.20;79.00;;;;;;4998925;28;20288;-89
2022/03/10 00:29:42;;;;;;;6.17;4.47;;;2.30;78.70;;;;;;5017671;28;20180;-85
2022/03/10 00:32:11;;;;;;;5.53;4.60;;;2.30;78.70;;;;;;5015050;28;20693;-85
2022/03/10 00:34:37;;;;;;;4.87;4.27;;;2.20;78.80;;;;;;5014351;28;20180;-83
2022/03/10 00:37:03;;;;;;;4.30;3.90;;;2.30;79.00;;;;;;5014738;28;20172;-85
2022/03/10 00:39:29;;;;;;;4.50;4.10;;;2.30;78.90;;;;;;5013996;28;20225;-87
2022/03/10 00:41:55;;;;;;;5.17;4.60;;;2.30;78.70;;;;;;4997088;28;20216;-85
2022/03/10 00:44:21;;;;;;;4.83;4.30;;;2.30;79.00;;;;;;5014327;28;20176;-83
2022/03/10 00:46:46;;;;;;;4.70;4.30;;;2.20;79.20;;;;;;5015009;28;20191;-89
2022/03/10 00:49:12;;;;;;;4.77;4.37;;;2.30;79.20;;;;;;5026050;28;20176;-90
2022/03/10 00:51:38;;;;;;;4.73;4.27;;;2.30;78.90;;;;;;5031583;28;20244;-83
2022/03/10 00:54:04;;;;;;;5.27;4.77;;;2.30;79.00;;;;;;5035518;28;20255;-87
2022/03/10 00:56:29;;;;;;;6.40;5.00;;;2.10;79.00;;;;;;5033660;28;20181;-82
2022/03/10 00:58:55;;;;;;;5.13;4.43;;;2.20;79.10;;;;;;5033867;28;20155;-85
2022/03/10 01:01:21;;;;;;;4.80;4.30;;;2.20;79.20;;;;;;5031094;28;20272;-89
2022/03/10 01:03:47;;;;;;;4.67;4.10;;;2.20;78.90;;;;;;5017656;28;20237;-85
2022/03/10 01:06:12;;;;;;;5.40;5.00;;;2.20;78.90;;;;;;5025421;28;20236;-85
2022/03/10 01:08:38;;;;;;;4.57;4.17;;;2.10;79.10;;;;;;5017810;28;20191;-85
2022/03/10 01:11:04;;;;;;;4.73;4.20;;;2.10;79.20;;;;;;5034255;28;20503;-86
2022/03/10 01:13:30;;;;;;;5.10;3.90;;;2.00;79.50;;;;;;5035174;28;20176;-83
2022/03/10 01:15:56;;;;;;;3.97;3.67;;;2.00;79.70;;;;;;5035144;28;20176;-85
2022/03/10 01:18:21;;;;;;;4.33;3.93;;;1.90;79.50;;;;;;5033932;28;20176;-88
2022/03/10 01:20:47;;;;;;;4.70;4.30;;;1.90;80.00;;;;;;5033307;28;20183;-86
2022/03/10 01:23:13;;;;;;;5.13;3.93;;;1.90;79.80;;;;;;5015819;28;20540;-85
2022/03/10 01:25:39;;;;;;;3.83;3.53;;;1.80;80.10;;;;;;5033418;28;20252;-85
2022/03/10 01:28:06;;;;;;;3.60;3.33;;;1.90;80.10;;;;;;5035668;28;20171;-83
2022/03/10 01:30:32;;;;;;;5.80;3.80;;;1.90;80.00;;;;;;5023543;28;20191;-83
2022/03/10 01:32:58;;;;;;;4.10;3.70;;;1.80;80.00;;;;;;5034963;28;20180;-88
2022/03/10 01:35:23;;;;;;;4.00;3.70;;;1.70;80.20;;;;;;5046283;28;20229;-85
2022/03/10 01:37:49;;;;;;;3.77;3.53;;;1.70;80.60;;;;;;5054574;28;20629;-85
2022/03/10 01:40:18;;;;;;;4.33;3.90;;;1.70;80.60;;;;;;5053389;28;20640;-88
2022/03/10 01:42:45;;;;;;;4.90;3.90;;;1.70;80.70;;;;;;5053454;28;20175;-88
2022/03/10 01:45:12;;;;;;;4.40;4.00;;;1.70;80.60;;;;;;5053146;28;20254;-88
2022/03/10 01:47:39;;;;;;;4.27;3.90;;;1.70;80.80;;;;;;5036564;28;20193;-89
2022/03/10 01:50:06;;;;;;;3.93;3.57;;;1.70;80.70;;;;;;5053823;28;20274;-90
2022/03/10 01:52:32;;;;;;;4.10;3.80;;;1.80;80.60;;;;;;5068204;28;20170;-85
2022/03/10 01:54:59;;;;;;;4.33;3.93;;;1.80;80.50;;;;;;5076226;28;20169;-85
2022/03/10 01:57:25;;;;;;;3.93;3.63;;;1.90;80.60;;;;;;5061589;28;20227;-84
2022/03/10 01:59:52;;;;;;;4.03;3.50;;;1.90;80.40;;;;;;5053675;28;20175;-84
2022/03/10 02:02:18;;;;;;;4.40;4.00;;;2.00;80.20;;;;;;5031778;28;20666;-84
2022/03/10 02:04:44;;;;;;;4.23;3.53;;;2.00;80.50;;;;;;5015708;28;20232;-84
2022/03/10 02:10:16;;;;;;;4.07;3.73;;;1.90;80.50;;;;;;5032952;28;20658;-85
2022/03/10 02:12:41;;;;;;;3.70;3.40;;;2.00;80.20;;;;;;5033303;28;20171;-89
2022/03/10 02:17:59;;;;;;;4.40;4.10;;;1.90;80.40;;;;;;5034633;28;20175;-89
2022/03/10 02:20:26;;;;;;;6.63;3.60;;;1.80;80.40;;;;;;5039413;28;20169;-82
2022/03/10 02:22:52;;;;;;;3.80;3.47;;;1.80;80.50;;;;;;5041738;28;20170;-85
2022/03/10 02:25:22;;;;;;;3.90;3.60;;;1.80;80.80;;;;;;5036267;28;20218;-83
2022/03/10 02:27:53;;;;;;;4.10;3.70;;;1.80;80.60;;;;;;5021975;28;20175;-85
2022/03/10 02:30:20;;;;;;;3.80;3.40;;;1.70;81.00;;;;;;5018896;28;20180;-89
2022/03/10 02:32:47;;;;;;;5.83;3.20;;;1.80;80.90;;;;;;5038623;28;20175;-89
2022/03/10 02:35:13;;;;;;;3.83;3.53;;;1.70;81.00;;;;;;5036206;28;20299;-86
2022/03/10 02:37:40;;;;;;;3.80;3.50;;;1.80;81.10;;;;;;5034579;28;20175;-85
2022/03/10 02:40:07;;;;;;;5.47;3.90;;;1.80;80.80;;;;;;5036148;28;20627;-85
2022/03/10 02:42:33;;;;;;;4.97;3.30;;;1.70;80.80;;;;;;5036321;28;20588;-88
2022/03/10 02:44:59;;;;;;;3.70;3.40;;;1.70;80.80;;;;;;5036529;28;20200;-85
2022/03/10 02:47:24;;;;;;;3.60;3.40;;;1.70;81.10;;;;;;5036239;28;20175;-85
2022/03/10 02:49:50;;;;;;;3.73;3.17;;;1.70;81.20;;;;;;5036033;28;20563;-84
2022/03/10 02:52:16;;;;;;;3.10;2.90;;;1.70;81.00;;;;;;5035969;28;20176;-88
2022/03/10 02:54:44;;;;;;;5.30;3.37;;;1.70;80.90;;;;;;5035884;28;20639;-84
2022/03/10 02:57:11;;;;;;;3.90;3.47;;;1.60;81.10;;;;;;5018344;28;20184;-83
2022/03/10 02:59:36;;;;;;;3.97;3.60;;;1.50;81.20;;;;;;5036457;28;20243;-88
2022/03/10 03:02:03;;;;;;;3.60;3.30;;;1.50;81.40;;;;;;5054045;28;20618;-88
2022/03/10 03:04:29;;;;;;;3.37;3.07;;;1.40;81.50;;;;;;5056710;28;20344;-87
2022/03/10 03:06:54;;;;;;;3.90;3.50;;;1.40;81.40;;;;;;5057310;28;20203;-89
2022/03/10 03:09:20;;;;;;;3.90;3.40;;;1.40;81.30;;;;;;5038140;28;20181;-90
2022/03/10 03:11:46;;;;;;;3.57;3.27;;;1.40;81.40;;;;;;5057403;28;20181;-90
2022/03/10 03:14:12;;;;;;;3.13;2.93;;;1.40;81.60;;;;;;5056360;28;20623;-89
2022/03/10 03:16:39;;;;;;;3.47;3.17;;;1.40;81.40;;;;;;5056068;28;20183;-89
2022/03/10 03:19:05;;;;;;;5.33;3.77;;;1.40;81.50;;;;;;5037547;28;20179;-84
2022/03/10 03:21:31;;;;;;;3.30;2.93;;;1.40;81.80;;;;;;5055618;28;20183;-89
2022/03/10 03:23:57;;;;;;;3.40;3.10;;;1.40;81.90;;;;;;5055383;28;20539;-85
2022/03/10 03:26:23;;;;;;;4.67;3.80;;;1.40;81.70;;;;;;5055596;28;20207;-83
2022/03/10 03:28:49;;;;;;;3.40;3.20;;;1.30;81.80;;;;;;5056773;28;20678;-83
2022/03/10 03:31:14;;;;;;;3.67;3.33;;;1.40;81.70;;;;;;5056219;28;20189;-86
2022/03/10 03:33:40;;;;;;;4.73;3.10;;;1.40;81.70;;;;;;5055835;28;20708;-85
2022/03/10 03:36:06;;;;;;;3.00;2.80;;;1.40;81.80;;;;;;5055860;28;20683;-84
2022/03/10 03:38:32;;;;;;;3.20;3.00;;;1.40;82.00;;;;;;5055724;28;20269;-86
2022/03/10 03:40:58;;;;;;;3.43;3.13;;;1.40;82.00;;;;;;5055368;28;20170;-90
2022/03/10 03:43:25;;;;;;;3.60;3.30;;;1.40;81.70;;;;;;5057486;28;20635;-84
2022/03/10 03:45:50;;;;;;;3.67;3.30;;;1.30;81.80;;;;;;5054175;28;20206;-87
2022/03/10 03:48:16;;;;;;;3.30;3.03;;;1.50;81.90;;;;;;5038484;28;20166;-90
2022/03/10 03:50:42;;;;;;;3.37;3.07;;;1.30;81.70;;;;;;5025526;28;20176;-89
2022/03/10 03:53:08;;;;;;;3.37;3.17;;;1.40;81.80;;;;;;5001059;28;20172;-89
2022/03/10 03:55:33;;;;;;;3.87;2.90;;;1.40;81.90;;;;;;4998099;28;20178;-85
2022/03/10 03:57:59;;;;;;;3.73;3.17;;;1.30;81.80;;;;;;5016439;28;20171;-87
2022/03/10 04:00:25;;;;;;;3.40;3.20;;;1.20;82.10;;;;;;5025026;28;20225;-90
2022/03/10 04:02:51;;;;;;;3.80;3.50;;;1.20;82.30;;;;;;5056065;28;20201;-89
2022/03/10 04:05:17;;;;;;;3.60;3.30;;;1.10;82.50;;;;;;5043754;28;20277;-84
2022/03/10 04:07:42;;;;;;;3.30;3.10;;;1.10;82.80;;;;;;5045171;28;20264;-87
2022/03/10 04:10:08;;;;;;;3.73;3.43;;;1.10;82.70;;;;;;5057634;28;20189;-85
2022/03/10 04:12:35;;;;;;;5.63;3.83;;;1.10;82.80;;;;;;5055075;28;20178;-85
2022/03/10 04:15:01;;;;;;;3.37;3.10;;;1.00;83.70;;;;;;5053997;28;20205;-89
2022/03/10 04:17:27;;;;;;;3.23;3.03;;;1.00;83.00;;;;;;5036150;28;20181;-89
2022/03/10 04:19:53;;;;;;;3.70;3.40;;;1.00;83.20;;;;;;5054894;28;20260;-89
2022/03/10 04:22:19;;;;;;;3.97;3.60;;;1.00;83.30;;;;;;5055186;28;20206;-89
2022/03/10 04:24:45;;;;;;;3.90;3.50;;;1.00;83.70;;;;;;5054860;28;20254;-86
2022/03/10 04:27:11;;;;;;;5.43;3.60;;;1.10;83.60;;;;;;5055145;28;20182;-88
2022/03/10 04:29:37;;;;;;;4.03;3.57;;;1.20;83.30;;;;;;5055009;28;20198;-87
2022/03/10 04:32:04;;;;;;;4.53;3.77;;;1.20;83.10;;;;;;5057727;28;20181;-85
2022/03/10 04:34:29;;;;;;;6.33;3.63;;;1.30;83.10;;;;;;5068360;28;20181;-87
2022/03/10 04:36:56;;;;;;;4.77;3.43;;;1.10;83.20;;;;;;5062654;28;20249;-91
2022/03/10 04:39:21;;;;;;;4.17;3.50;;;1.10;83.40;;;;;;5070444;28;20212;-90
2022/03/10 04:41:47;;;;;;;5.50;3.73;;;1.20;83.40;;;;;;5058729;28;20223;-90
2022/03/10 04:44:13;;;;;;;3.80;3.50;;;1.20;83.50;;;;;;5055190;28;20305;-83
2022/03/10 04:46:39;;;;;;;3.87;3.23;;;1.20;83.50;;;;;;5055661;28;20594;-82
2022/03/10 04:49:05;;;;;;;5.10;3.90;;;1.20;83.80;;;;;;5054110;28;20173;-83
2022/03/10 04:51:31;;;;;;;5.03;4.13;;;1.10;83.70;;;;;;5054014;28;20179;-85
2022/03/10 04:53:57;;;;;;;4.13;3.83;;;1.10;84.30;;;;;;5053855;28;20179;-83
2022/03/10 04:56:23;;;;;;;7.87;3.63;;;1.20;84.00;;;;;;5053970;28;20257;-85
2022/03/10 04:58:49;;;;;;;4.03;3.60;;;1.10;84.00;;;;;;5054410;28;20233;-89
2022/03/10 05:01:15;;;;;;;4.33;3.93;;;1.20;83.70;;;;;;5055916;28;20172;-87
2022/03/10 05:03:40;;;;;;;3.67;3.40;;;1.20;83.70;;;;;;5038255;28;20177;-87
2022/03/10 05:06:07;;;;;;;3.40;3.20;;;1.10;83.30;;;;;;5056535;28;20211;-89
2022/03/10 05:08:33;;;;;;;3.60;3.30;;;1.00;83.30;;;;;;5046596;28;20279;-83
2022/03/10 05:10:59;;;;;;;3.60;3.40;;;1.10;83.30;;;;;;5063748;28;20215;-84
2022/03/10 05:13:25;;;;;;;3.57;3.23;;;1.10;82.80;;;;;;5051485;28;20181;-87
2022/03/10 05:15:51;;;;;;;3.73;3.43;;;1.00;82.80;;;;;;5061455;28;20220;-86
2022/03/10 05:18:17;;;;;;;3.00;2.80;;;1.00;83.20;;;;;;5038245;28;20636;-86
2022/03/10 05:20:43;;;;;;;4.13;3.57;;;1.10;83.00;;;;;;5056202;28;20197;-85
2022/03/10 05:23:09;;;;;;;3.97;3.57;;;1.10;83.20;;;;;;5060019;28;20178;-87
2022/03/10 05:25:37;;;;;;;3.80;3.40;;;1.00;83.20;;;;;;5043393;28;20213;-89
2022/03/10 05:28:04;;;;;;;5.80;3.23;;;1.10;83.30;;;;;;5046038;28;20262;-90
2022/03/10 05:30:30;;;;;;;3.93;3.53;;;1.10;83.30;;;;;;5060016;28;20248;-92
2022/03/10 05:32:56;;;;;;;4.13;3.73;;;1.10;83.60;;;;;;5062731;28;20180;-88
2022/03/10 05:35:22;;;;;;;4.70;4.30;;;1.00;83.60;;;;;;5069246;28;20285;-86
2022/03/10 05:37:48;;;;;;;7.47;4.27;;;0.90;83.40;;;;;;5061151;28;20489;-84
2022/03/10 05:40:17;;;;;;;6.20;4.60;;;1.00;83.40;;;;;;5071844;28;20183;-83
2022/03/10 05:42:43;;;;;;;5.20;4.70;;;0.90;83.80;;;;;;5047278;28;20169;-83
2022/03/10 05:45:11;;;;;;;6.07;5.47;;;1.00;83.40;;;;;;5063223;28;20193;-86
2022/03/10 05:47:38;;;;;;;5.10;4.60;;;0.90;83.70;;;;;;5062697;28;20166;-83
2022/03/10 05:50:06;;;;;;;10.23;4.90;;;0.80;84.10;;;;;;5061782;28;20281;-83
2022/03/10 05:52:32;;;;;;;10.27;5.37;;;0.80;84.00;;;;;;5061870;28;20166;-87
2022/03/10 05:54:58;;;;;;;8.00;5.00;;;0.80;84.10;;;;;;5055531;28;20171;-87
2022/03/10 05:57:24;;;;;;;6.50;4.67;;;0.70;84.40;;;;;;5055848;28;20261;-87
2022/03/10 05:59:51;;;;;;;6.23;5.23;;;0.80;84.20;;;;;;5058824;28;20205;-84
2022/03/10 06:02:18;;;;;;;6.37;5.07;;;0.80;84.20;;;;;;5020968;28;20252;-84
2022/03/10 06:04:44;;;;;;;6.80;5.07;;;0.90;84.30;;;;;;5035109;28;20174;-85
2022/03/10 06:07:11;;;;;;;6.27;5.03;;;1.00;84.10;;;;;;5034942;28;20544;-87
2022/03/10 06:09:37;;;;;;;6.47;5.50;;;1.00;83.80;;;;;;5034698;28;20518;-84
2022/03/10 06:12:03;;;;;;;9.80;5.17;;;1.10;83.80;;;;;;5034204;28;20228;-85
2022/03/10 06:14:29;;;;;;;7.13;5.27;;;1.00;83.80;;;;;;5018244;28;20645;-86
2022/03/10 06:16:55;;;;;;;7.97;6.10;;;1.00;83.90;;;;;;5029382;28;20197;-84
2022/03/10 06:19:21;;;;;;;11.60;6.17;;;1.00;84.00;;;;;;5016623;28;20583;-88
2022/03/10 06:21:47;;;;;;;6.60;5.50;;;1.00;83.80;;;;;;5001631;28;20666;-88
2022/03/10 06:24:13;;;;;;;8.03;5.97;;;1.20;83.70;;;;;;5001425;28;20174;-88
2022/03/10 06:26:40;;;;;;;10.97;6.17;;;1.20;83.70;;;;;;5020100;28;20283;-91
2022/03/10 06:29:07;;;;;;;8.00;6.17;;;1.20;83.90;;;;;;5000388;28;20177;-90
2022/03/10 06:31:34;;;;;;;18.73;8.10;;;1.20;84.00;;;;;;5017284;28;20256;-90
2022/03/10 06:34:00;;;;;;;10.57;8.00;;;1.10;84.50;;;;;;5017249;28;20195;-89
2022/03/10 06:36:26;;;;;;;13.80;7.80;;;1.10;84.90;;;;;;4999581;28;20254;-90
2022/03/10 06:38:55;;;;;;;17.73;8.37;;;1.20;85.00;;;;;;5017780;28;20202;-90
2022/03/10 06:41:21;;;;;;;10.50;8.10;;;1.30;85.00;;;;;;5006097;28;20183;-86
2022/03/10 06:43:47;;;;;;;11.30;7.30;;;1.40;84.70;;;;;;5024142;28;20171;-90
2022/03/10 06:46:14;;;;;;;12.20;8.33;;;1.40;84.50;;;;;;5005895;28;20222;-87
2022/03/10 06:48:40;;;;;;;12.67;8.07;;;1.50;84.50;;;;;;5008486;28;20185;-85
2022/03/10 06:51:06;;;;;;;20.47;8.70;;;1.60;84.10;;;;;;5011085;28;20209;-86
2022/03/10 06:53:35;;;;;;;15.53;8.70;;;1.60;84.10;;;;;;5009013;28;20255;-89
2022/03/10 06:56:00;;;;;;;17.10;8.70;;;1.60;84.20;;;;;;5009508;28;20213;-88
2022/03/10 06:58:26;;;;;;;12.40;7.80;;;1.70;84.20;;;;;;5011114;28;20187;-89
2022/03/10 07:00:52;;;;;;;19.97;8.37;;;1.80;84.20;;;;;;5022329;28;20181;-88
2022/03/10 07:03:19;;;;;;;15.37;6.60;;;1.90;84.30;;;;;;5018944;28;20203;-86
2022/03/10 07:05:45;;;;;;;10.43;6.33;;;1.90;83.70;;;;;;4999788;28;20210;-89
2022/03/10 07:08:11;;;;;;;11.33;6.87;;;2.00;83.50;;;;;;4999762;28;20175;-85
2022/03/10 07:10:37;;;;;;;9.97;5.83;;;2.10;83.30;;;;;;4999016;28;20184;-85
2022/03/10 07:13:03;;;;;;;11.70;6.17;;;2.20;83.20;;;;;;5016553;28;20216;-87
2022/03/10 07:15:29;;;;;;;11.70;6.10;;;2.30;83.10;;;;;;5022322;28;20193;-88
2022/03/10 07:17:54;;;;;;;8.33;5.70;;;2.30;82.90;;;;;;5008769;28;20212;-88
2022/03/10 07:20:20;;;;;;;8.73;6.90;;;2.40;82.90;;;;;;5027036;28;20177;-90
2022/03/10 07:22:46;;;;;;;10.13;6.10;;;2.50;82.30;;;;;;5019772;28;20177;-88
2022/03/10 07:25:12;;;;;;;12.13;6.30;;;2.60;82.00;;;;;;5017456;28;20300;-91
2022/03/10 07:27:38;;;;;;;13.93;6.80;;;2.70;81.90;;;;;;5020975;28;20169;-89
2022/03/10 07:30:05;;;;;;;9.07;6.47;;;2.70;82.00;;;;;;5031471;28;20198;-92
2022/03/10 07:32:33;;;;;;;9.10;6.37;;;2.80;81.40;;;;;;5035180;28;20204;-92
2022/03/10 07:35:00;;;;;;;24.00;9.07;;;2.90;81.30;;;;;;5039125;28;20358;-87
2022/03/10 07:37:27;;;;;;;12.70;6.83;;;3.00;80.40;;;;;;5035836;28;20227;-87
2022/03/10 07:39:53;;;;;;;8.33;6.43;;;3.00;80.60;;;;;;5036537;28;20649;-87
2022/03/10 07:42:19;;;;;;;11.20;6.67;;;3.10;82.30;;;;;;5036943;28;20178;-91
2022/03/10 07:44:45;;;;;;;11.20;7.03;;;3.30;82.20;;;;;;5037019;28;20171;-90
2022/03/10 07:47:11;;;;;;;7.93;6.30;;;3.40;82.60;;;;;;5019196;28;20525;-90
2022/03/10 07:49:37;;;;;;;13.70;7.97;;;3.60;84.70;;;;;;5036758;28;20571;-91
2022/03/10 07:52:04;;;;;;;10.43;7.10;;;3.80;80.80;;;;;;5036739;28;20226;-89
2022/03/10 07:54:30;;;;;;;12.70;6.87;;;3.80;81.00;;;;;;5038236;28;20177;-90
2022/03/10 07:56:57;;;;;;;11.63;7.30;;;3.90;81.40;;;;;;5037371;28;20268;-87
2022/03/10 07:59:23;;;;;;;11.60;7.53;;;4.00;80.70;;;;;;5038459;28;20219;-85
2022/03/10 08:01:49;;;;;;;15.27;8.63;;;4.10;79.60;;;;;;5044842;28;20653;-85
2022/03/10 08:04:15;;;;;;;23.00;8.37;;;4.10;80.10;;;;;;5024015;28;20187;-88
2022/03/10 08:06:41;;;;;;;18.53;8.30;;;4.20;79.50;;;;;;5036786;28;20204;-91
2022/03/10 08:09:10;;;;;;;16.83;8.47;;;4.30;78.70;;;;;;5036977;28;20187;-86
2022/03/10 08:11:38;;;;;;;13.97;7.70;;;4.30;79.40;;;;;;5038321;28;20171;-87
2022/03/10 08:14:04;;;;;;;16.47;7.60;;;4.40;78.70;;;;;;5038425;28;20168;-88
2022/03/10 08:16:31;;;;;;;10.67;8.23;;;4.40;78.40;;;;;;5036899;28;20180;-89
2022/03/10 08:18:57;;;;;;;11.57;7.77;;;4.50;78.40;;;;;;5036375;28;20637;-87
2022/03/10 08:21:23;;;;;;;18.03;8.83;;;4.50;77.70;;;;;;5037372;28;20185;-87
2022/03/10 08:23:49;;;;;;;18.07;7.67;;;4.60;77.60;;;;;;5035723;28;20182;-87
2022/03/10 08:26:15;;;;;;;10.03;7.10;;;4.60;78.10;;;;;;5017937;28;20212;-87
2022/03/10 08:28:40;;;;;;;10.77;7.77;;;4.60;78.70;;;;;;5036051;28;20168;-87
2022/03/10 08:31:06;;;;;;;11.77;7.77;;;4.80;77.20;;;;;;5036195;28;20176;-90
2022/03/10 08:33:32;;;;;;;10.80;7.80;;;4.90;77.80;;;;;;5037595;28;20168;-89
2022/03/10 08:35:58;;;;;;;11.30;7.40;;;4.90;77.30;;;;;;5036846;28;20291;-89
2022/03/10 08:38:25;;;;;;;12.20;8.60;;;5.00;77.30;;;;;;5022240;28;20179;-90
2022/03/10 08:40:52;;;;;;;14.03;7.73;;;5.10;76.90;;;;;;5048533;28;20234;-85
2022/03/10 08:43:18;;;;;;;11.90;8.03;;;5.20;77.10;;;;;;5044707;28;20179;-85
2022/03/10 08:45:44;;;;;;;10.50;8.10;;;5.30;77.00;;;;;;5031066;28;20210;-84
2022/03/10 08:48:10;;;;;;;17.37;8.57;;;5.40;76.90;;;;;;5021427;28;20178;-90
2022/03/10 08:50:36;;;;;;;19.30;9.47;;;5.40;76.60;;;;;;5037529;28;20184;-88
2022/03/10 08:53:02;;;;;;;13.43;9.10;;;5.50;77.20;;;;;;5035970;28;20166;-91
2022/03/10 08:55:28;;;;;;;19.07;8.13;;;5.60;77.00;;;;;;5018544;28;20181;-86
2022/03/10 08:57:55;;;;;;;14.47;8.33;;;5.60;77.20;;;;;;5017741;28;20176;-87
2022/03/10 09:00:21;;;;;;;17.20;8.43;;;5.70;77.30;;;;;;5042259;28;20173;-87
2022/03/10 09:02:47;;;;;;;13.97;8.87;;;5.80;77.50;;;;;;5022594;28;20181;-84
2022/03/10 09:05:13;;;;;;;14.50;7.20;;;5.80;77.20;;;;;;5039804;28;20251;-89
2022/03/10 09:07:40;;;;;;;12.93;7.30;;;5.80;76.60;;;;;;5023315;28;20209;-86
2022/03/10 09:10:08;;;;;;;9.87;7.57;;;6.00;74.60;;;;;;5038500;28;20172;-85
2022/03/10 09:12:33;;;;;;;11.30;7.50;;;6.00;74.60;;;;;;5020131;28;20774;-87
2022/03/10 09:14:59;;;;;;;7.87;7.07;;;6.00;74.60;;;;;;5040806;28;20180;-87
2022/03/10 09:17:25;;;;;;;10.77;7.90;;;6.10;74.60;;;;;;5040625;28;20656;-86
2022/03/10 09:19:51;;;;;;;12.40;7.60;;;6.20;74.00;;;;;;5020732;28;20219;-87
2022/03/10 09:22:17;;;;;;;12.20;7.87;;;6.30;73.70;;;;;;5037862;28;20222;-88
2022/03/10 09:24:44;;;;;;;12.23;7.47;;;6.40;74.20;;;;;;5035557;28;20202;-90
2022/03/10 09:27:10;;;;;;;9.87;6.87;;;6.40;73.60;;;;;;5052122;28;20181;-87
2022/03/10 09:29:36;;;;;;;11.60;7.77;;;6.30;73.80;;;;;;5057849;28;20160;-89
2022/03/10 09:32:04;;;;;;;8.83;7.30;;;6.30;73.60;;;;;;5055312;28;20200;-90
2022/03/10 09:34:30;;;;;;;8.30;7.43;;;6.40;73.20;;;;;;5038725;28;20182;-87
2022/03/10 09:36:55;;;;;;;13.83;7.23;;;6.50;72.70;;;;;;5037632;28;20177;-86
2022/03/10 09:39:21;;;;;;;10.97;7.23;;;6.60;77.90;;;;;;5035328;28;20181;-89
2022/03/10 09:41:47;;;;;;;8.40;7.03;;;6.70;75.90;;;;;;5018072;28;20182;-86
2022/03/10 09:44:17;;;;;;;8.13;7.33;;;6.70;74.70;;;;;;5034565;28;20175;-84
2022/03/10 09:46:47;;;;;;;11.00;7.77;;;6.80;73.30;;;;;;5034420;28;20201;-86
2022/03/10 09:49:13;;;;;;;10.60;6.87;;;6.80;73.10;;;;;;5038231;28;20296;-87
2022/03/10 09:51:40;;;;;;;8.33;7.00;;;7.00;71.40;;;;;;5040420;28;20179;-87
2022/03/10 09:54:06;;;;;;;13.17;7.57;;;7.00;71.10;;;;;;5038963;28;20211;-90
2022/03/10 09:56:36;;;;;;;8.80;7.93;;;7.00;71.30;;;;;;5038312;28;20175;-85
2022/03/10 09:59:06;;;;;;;10.50;7.30;;;7.00;71.60;;;;;;5041125;28;20153;-87
2022/03/10 10:01:32;;;;;;;9.23;6.97;;;7.00;71.50;;;;;;5043845;28;20177;-87
2022/03/10 10:03:58;;;;;;;8.60;7.37;;;7.00;71.80;;;;;;5041562;28;20181;-86
2022/03/10 10:06:23;;;;;;;10.80;8.50;;;7.00;72.20;;;;;;5037998;28;20203;-85
2022/03/10 10:08:56;;;;;;;12.23;8.03;;;7.10;71.30;;;;;;5038141;28;20174;-85
2022/03/10 10:11:33;;;;;;;9.00;8.10;;;7.10;70.60;;;;;;5020708;28;20181;-88
2022/03/10 10:13:59;;;;;;;11.87;8.47;;;7.20;70.60;;;;;;5020429;28;20348;-85
2022/03/10 10:16:26;;;;;;;11.53;7.77;;;7.30;70.30;;;;;;5038390;28;20168;-84
2022/03/10 10:18:56;;;;;;;10.60;7.93;;;7.30;70.20;;;;;;5038629;28;20203;-85
2022/03/10 10:21:23;;;;;;;9.47;7.53;;;7.40;70.40;;;;;;5039984;28;20183;-86
2022/03/10 10:23:51;;;;;;;11.07;8.10;;;7.50;70.50;;;;;;5022371;28;20177;-83
2022/03/10 10:26:18;;;;;;;13.40;9.03;;;7.50;69.80;;;;;;5040970;28;20204;-84
2022/03/10 10:28:47;;;;;;;12.20;8.53;;;7.60;70.40;;;;;;5049126;28;20161;-85
2022/03/10 10:31:22;;;;;;;9.70;8.63;;;7.70;69.70;;;;;;5040057;28;20175;-85
2022/03/10 10:34:08;;;;;;;10.20;8.57;;;7.70;70.10;;;;;;5023407;28;20199;-90
2022/03/10 10:36:37;;;;;;;12.03;8.57;;;7.80;70.30;;;;;;5025990;28;20228;-91
2022/03/10 10:39:08;;;;;;;12.07;8.50;;;7.90;70.10;;;;;;5051825;28;20149;-84
2022/03/10 10:41:34;;;;;;;10.73;8.90;;;8.00;70.50;;;;;;5053030;28;20253;-84
2022/03/10 10:44:04;;;;;;;11.53;9.30;;;8.10;70.40;;;;;;5051452;28;20176;-85
2022/03/10 10:46:34;;;;;;;10.37;8.77;;;8.10;70.40;;;;;;5028419;28;20581;-87
2022/03/10 10:49:24;;;;;;;14.90;9.60;;;8.10;69.80;;;;;;5040870;28;20175;-90
2022/03/10 10:51:52;;;;;;;20.20;9.93;;;8.30;70.50;;;;;;5050992;28;20188;-85
2022/03/10 10:54:19;;;;;;;15.90;10.07;;;8.30;69.30;;;;;;5054514;28;20172;-87
2022/03/10 10:56:50;;;;;;;16.27;10.23;;;8.40;68.70;;;;;;5055998;28;20171;-88
2022/03/10 10:59:40;;;;;;;11.43;9.87;;;8.50;68.60;;;;;;5052113;28;20187;-87
2022/03/10 11:02:21;;;;;;;12.73;9.10;;;8.40;69.00;;;;;;5052031;28;20220;-88
2022/03/10 11:04:52;;;;;;;10.33;9.23;;;8.50;69.60;;;;;;5045833;28;20176;-87
2022/03/10 11:07:31;;;;;;;12.90;10.83;;;8.60;68.30;;;;;;5044536;28;20235;-89
2022/03/10 11:09:57;;;;;;;11.70;10.40;;;8.60;68.30;;;;;;5054470;28;20164;-88
2022/03/10 11:12:23;;;;;;;13.40;10.00;;;8.60;68.50;;;;;;5049469;28;20207;-86
2022/03/10 11:14:49;;;;;;;12.90;10.57;;;8.60;68.80;;;;;;5048705;28;20176;-86
2022/03/10 11:17:18;;;;;;;12.00;10.80;;;8.70;68.30;;;;;;5046546;28;20192;-87
2022/03/10 11:19:50;;;;;;;11.63;10.43;;;8.70;68.50;;;;;;5047242;28;20172;-91
2022/03/10 11:22:45;;;;;;;11.97;9.87;;;8.70;67.80;;;;;;5035511;28;20668;-87
2022/03/10 11:25:42;;;;;;;12.20;10.57;;;8.70;67.50;;;;;;5024150;28;20219;-90
2022/03/10 11:28:21;;;;;;;14.87;10.30;;;8.70;67.90;;;;;;5039863;28;20187;-84
2022/03/10 11:30:53;;;;;;;13.17;10.60;;;8.80;67.70;;;;;;5021440;28;20211;-86
2022/03/10 11:33:19;;;;;;;15.13;11.77;;;8.70;68.40;;;;;;5036861;28;20184;-87
2022/03/10 11:35:47;;;;;;;13.17;11.17;;;8.70;68.40;;;;;;5038682;28;20224;-85
2022/03/10 11:38:15;;;;;;;13.17;10.93;;;8.80;69.20;;;;;;5036869;28;20616;-86
2022/03/10 11:40:44;;;;;;;12.93;11.37;;;8.90;69.10;;;;;;5036583;28;20515;-84
2022/03/10 11:43:16;;;;;;;14.17;11.83;;;8.90;69.00;;;;;;5036998;28;20570;-84
2022/03/10 11:45:42;;;;;;;17.00;12.13;;;9.00;69.40;;;;;;5036379;28;20303;-88
2022/03/10 11:48:23;;;;;;;12.67;11.40;;;9.10;69.30;;;;;;5036852;28;20219;-84
2022/03/10 11:50:50;;;;;;;14.67;11.67;;;9.10;69.40;;;;;;5037396;28;20545;-90
2022/03/10 11:53:16;;;;;;;13.10;11.80;;;9.10;68.90;;;;;;5037624;28;20173;-86
2022/03/10 11:55:54;;;;;;;14.20;11.43;;;9.20;68.80;;;;;;5037326;28;20180;-88
2022/03/10 11:58:36;;;;;;;14.30;12.23;;;9.10;68.30;;;;;;5043852;28;20628;-86
2022/03/10 12:01:03;;;;;;;15.40;11.77;;;9.10;68.70;;;;;;5050028;28;20172;-85
2022/03/10 12:03:38;;;;;;;13.27;11.80;;;9.10;68.80;;;;;;5028026;28;20172;-90
2022/03/10 12:06:12;;;;;;;14.13;12.30;;;9.10;68.50;;;;;;5020960;28;20200;-89
2022/03/10 12:08:42;;;;;;;14.70;11.87;;;9.10;68.20;;;;;;5024614;28;20174;-88
2022/03/10 12:11:20;;;;;;;12.70;11.30;;;9.10;68.40;;;;;;5048965;28;20180;-89
2022/03/10 12:13:46;;;;;;;12.03;10.47;;;9.00;68.30;;;;;;5049612;28;20182;-87
2022/03/10 12:16:25;;;;;;;13.73;11.67;;;9.10;68.30;;;;;;5042356;28;20178;-88
2022/03/10 12:18:52;;;;;;;12.47;10.97;;;9.00;67.90;;;;;;5036851;28;20171;-92
2022/03/10 12:21:23;;;;;;;16.83;12.13;;;8.80;68.40;;;;;;5019559;28;20172;-92
2022/03/10 12:24:02;;;;;;;13.57;11.97;;;8.80;68.80;;;;;;5020295;28;20180;-91
2022/03/10 12:26:30;;;;;;;14.17;11.27;;;9.00;68.60;;;;;;5039142;28;20661;-89
2022/03/10 12:28:59;;;;;;;14.07;11.70;;;9.10;69.40;;;;;;5039243;28;20164;-92
2022/03/10 12:31:32;;;;;;;14.90;12.20;;;9.10;67.90;;;;;;5036578;28;20185;-91
2022/03/10 12:34:00;;;;;;;14.10;12.10;;;9.10;68.20;;;;;;5036654;28;20193;-92
2022/03/10 12:36:34;;;;;;;15.47;11.73;;;9.10;68.20;;;;;;5037085;28;20224;-92
2022/03/10 12:39:12;;;;;;;13.07;11.53;;;9.10;68.70;;;;;;5037094;28;20164;-91
2022/03/10 12:41:42;;;;;;;14.83;11.83;;;9.20;68.20;;;;;;5035851;28;20162;-91
2022/03/10 12:44:10;;;;;;;13.77;11.50;;;9.20;68.60;;;;;;5035208;28;20187;-91
2022/03/10 12:46:41;;;;;;;13.30;12.00;;;9.20;69.00;;;;;;5035228;28;20218;-90
2022/03/10 12:49:35;;;;;;;18.57;11.97;;;9.20;68.20;;;;;;5038429;28;20251;-88
2022/03/10 12:52:12;;;;;;;15.33;11.93;;;9.30;68.40;;;;;;5035806;28;20168;-85
2022/03/10 12:54:42;;;;;;;14.00;12.50;;;9.20;68.00;;;;;;5034508;28;20612;-91
2022/03/10 12:57:09;;;;;;;15.13;12.13;;;9.30;67.70;;;;;;5035089;28;20234;-90